x

Central Aleutians 230nm Sw Dutch Harbor (46072) Wave Buoy

7:50pm - Tue 21st Apr 2015 All times are UTC.

  • Sig Wave height 6.2ft
  • Peak Period 8s
  • Average Period 6s
  • Wind
    16mph, 20mph gusts
  • Sea Temp 40°f
  • Air Temp 37°f
  • Sea Pressure 1012.1mb

More Historic Weather Station data

Upgrade to MSW Pro to gain access to the past 30 days of data for over 8000 Wavebouys and Weather Stations around the globe.

Join Pro

Comparision Forecast

View Surf forecast
   
Tue 04/21 7:50pm 6ft 8s 6s 16 20 mph 1012.1mb 40f 37f
6:50pm 5ft 6s 6s 16 20 mph 1011.7mb 40f 36f
5:50pm 6ft 7s 5s 18 20 mph 1011.2mb 40f 37f
4:50pm 5.5ft 7s 5s 18 22 mph 1010.5mb 40f 37f
3:50pm 5ft 9s 5s 20 25 mph 1009.9mb 40f 37f
2:50pm 5ft 7s 5s 13 16 mph 1009.7mb 40f 36f
1:50pm 6ft 6s 5s 18 20 mph 1009.6mb 40f 36f
12:50pm 6ft 8s 5s 13 18 mph 1009.8mb 40f 36f
11:50am 6.5ft 7s 5s 18 20 mph 1010mb 40f 36f
10:50am 7ft 6s 5s 16 20 mph 1009.5mb 40f 37f
9:50am 7ft 7s 6s 16 20 mph 1009.3mb 40f 36f
8:50am 6.5ft 7s 6s 18 22 mph 1009.1mb 41f 36f
7:50am 6ft 7s 6s 16 20 mph 1008.6mb 41f 37f
6:50am 6ft 7s 6s 16 20 mph 1008.1mb 40f 36f
5:50am 6ft 9s 6s 18 20 mph 1007.4mb 40f 36f
4:50am 6ft 7s 6s 16 18 mph 1007.2mb 40f 37f
3:50am 6ft 10s 6s 13 20 mph 1007.2mb 41f 33f
2:50am 5ft 9s 6s 18 20 mph 1007.1mb 41f 37f
1:50am 6ft 7s 6s 16 20 mph 1007.2mb 41f 37f
12:50am 6.5ft 7s 6s 16 20 mph 1007.6mb 40f 36f
Mon 04/20 11:50pm 7ft 8s 5s 16 18 mph 1007.8mb 40f 35f
10:50pm 7ft 8s 6s 16 18 mph 1008.1mb 40f 35f
9:50pm 7.5ft 7s 6s 20 25 mph 1008.4mb 40f 32f
8:50pm 8ft 7s 6s 11 16 mph 1008.4mb 40f 34f
7:50pm 8.5ft 8s 6s 20 25 mph 1008.7mb 40f 32f
6:50pm 8ft 8s 6s 9 11 mph 1008.8mb 40f 34f
5:50pm 8.5ft 7s 6s 22 29 mph 1008.9mb 40f 33f
4:50pm 7ft 8s 6s 18 22 mph 1008.7mb 40f 36f
3:50pm 8ft 8s 6s 18 20 mph 1008.8mb 40f 37f
2:50pm 8ft 8s 6s 16 20 mph 1009.4mb 40f 36f
1:50pm 8ft 8s 6s 18 25 mph 1010mb 40f 35f
12:50pm 8ft 7s 6s 16 22 mph 1010.7mb 40f 33f
11:50am 8ft 7s 6s 16 20 mph 1010.5mb 40f 35f
10:50am 9ft 7s 6s 20 25 mph 1010.7mb 40f 35f
9:50am 9ft 7s 6s 18 25 mph 1010.9mb 40f 35f
8:50am 9ft 6s 6s 18 22 mph 1011.3mb 40f 36f
7:50am 10ft 7s 6s 27 34 mph 1011.2mb 40f 36f
6:50am 8ft 7s 6s 27 31 mph 1011.3mb 40f 35f
5:50am 8.5ft 6s 6s 27 34 mph 1011.2mb 40f 34f
4:50am 8.5ft 6s 6s 27 31 mph 1011.7mb 40f 37f
3:50am 7ft 10s 6s 25 29 mph 1012.1mb 40f 35f
2:50am 7ft 12s 6s 25 29 mph 1012.7mb 40f 34f
1:50am 6ft 11s 6s 22 27 mph 1013mb 40f 37f
12:50am 7ft 11s 7s 20 27 mph 1013.6mb 41f 37f
Sun 04/19 11:50pm 7.5ft 11s 7s 20 25 mph 1014.2mb 40f 35f
10:50pm 8ft 10s 7s 11 16 mph 1014.4mb 40f 36f
9:50pm 9ft 11s 7s 11 13 mph 1014.8mb 40f 35f
8:50pm 11ft 11s 8s 11 16 mph 1014.7mb 40f 35f
7:50pm 13.5ft 11s 9s 9 13 mph 1014.5mb 40f 35f
6:50pm 13.5ft 11s 9s 11 16 mph 1014.2mb 40f 35f
5:50pm 12ft 11s 9s 13 16 mph 1013.6mb 40f 35f
4:50pm 11.5ft 12s 8s 13 16 mph 1012.8mb 40f 35f
3:50pm 13.5ft 13s 9s 16 22 mph 1012.3mb 40f 35f
2:50pm 13ft 13s 8s 18 22 mph 1011.7mb 40f 35f
1:50pm 11.5ft 12s 7s 16 22 mph 1011.2mb 40f 35f
12:50pm 12ft 12s 8s 16 22 mph 1010.5mb 40f 35f
11:50am 12ft 12s 7s 20 25 mph 1010mb 40f 35f
10:50am 12ft 12s 7s 22 27 mph 1009.2mb 40f 35f
9:50am 14ft 12s 8s 22 25 mph 1008.6mb 40f 35f
8:50am 14ft 11s 8s 22 27 mph 1007.7mb 40f 35f
7:50am 16ft 12s 8s 22 27 mph 1006.8mb 40f 35f
6:50am 15.5ft 12s 8s 25 31 mph 1005.7mb 40f 35f
5:50am 14.5ft 12s 8s 25 31 mph 1004.8mb 40f 34f
4:50am 11.5ft 12s 7s 27 31 mph 1003.9mb 41f 34f
3:50am 12ft 12s 7s 27 34 mph 1002.8mb 40f 35f
2:50am 13ft 12s 7s 27 34 mph 1002.3mb 40f 35f
1:50am 12ft 12s 7s 27 31 mph 1001.6mb 41f 34f
12:50am 12ft 11s 7s 27 34 mph 1000.9mb 41f 35f
Sat 04/18 11:50pm 13ft 12s 7s 29 34 mph 1000.3mb 40f 34f
10:50pm 14.5ft 11s 7s 27 34 mph 999.9mb 40f 33f
9:50pm 13ft 11s 7s 27 34 mph 999.2mb 40f 33f
8:50pm 16.5ft 12s 8s 27 34 mph 998.5mb 41f 33f
7:50pm 16ft 11s 7s 27 34 mph 997.6mb 40f 33f
6:50pm 17ft 11s 8s 27 34 mph 996.9mb 40f 33f
5:50pm 16.5ft 12s 8s 29 38 mph 996mb 40f 34f
4:50pm 16.5ft 12s 8s 31 38 mph 994.6mb 40f 35f
3:50pm 16ft 12s 7s 31 38 mph 993.7mb 40f 36f
2:50pm 16.5ft 12s 7s 29 38 mph 993mb 40f 36f
1:50pm 17ft 12s 7s 31 38 mph 992mb 40f 36f
12:50pm 17.5ft 11s 7s 34 43 mph 991.4mb 40f 35f
11:50am 18.5ft 11s 8s 34 45 mph 991.1mb 41f 35f
10:50am 18ft 11s 7s 34 45 mph 990.8mb 41f 35f
9:50am 17ft 10s 7s 34 43 mph 990.2mb 41f 36f
8:50am 16ft 11s 7s 34 40 mph 989.9mb 41f 35f
7:50am 19ft 11s 8s 34 43 mph 989.5mb 41f 36f
6:50am 18ft 11s 8s 34 43 mph 988.9mb 41f 37f
5:50am 17.5ft 10s 7s 36 43 mph 988.1mb 41f 37f
4:50am 15.5ft 11s 7s 34 43 mph 987.8mb 41f 35f
3:50am 15.5ft 9s 7s 34 43 mph 987.6mb 41f 35f
2:50am 15.5ft 9s 7s 31 40 mph 987.4mb 41f 36f
1:50am 15ft 10s 7s 34 40 mph 987.3mb 41f 36f
12:50am 16.5ft 11s 7s 34 40 mph 987.5mb 41f 37f
Fri 04/17 11:50pm 17.5ft 11s 7s 34 40 mph 987.8mb 41f 36f
10:50pm 17ft 10s 7s 31 38 mph 988.1mb 41f 37f
9:50pm 17.5ft 10s 7s 34 40 mph 988.4mb 41f 37f